sensor_id;sensor_type;location;lat;lon;timestamp;pressure;altitude;pressure_sealevel;temperature;humidity
22605;BME280;11469;49.024;8.246;2022-09-12T00:00:05;100506.75;;;13.26;100.00
22605;BME280;11469;49.024;8.246;2022-09-12T00:02:30;100515.19;;;13.26;100.00
22605;BME280;11469;49.024;8.246;2022-09-12T00:04:56;100503.31;;;13.13;100.00
22605;BME280;11469;49.024;8.246;2022-09-12T00:07:21;100507.31;;;13.12;100.00
22605;BME280;11469;49.024;8.246;2022-09-12T00:09:47;100498.38;;;13.07;100.00
22605;BME280;11469;49.024;8.246;2022-09-12T00:12:12;100503.25;;;13.10;100.00
22605;BME280;11469;49.024;8.246;2022-09-12T00:14:38;100495.69;;;13.14;100.00
22605;BME280;11469;49.024;8.246;2022-09-12T00:17:03;100496.50;;;13.14;100.00
22605;BME280;11469;49.024;8.246;2022-09-12T00:19:29;100499.03;;;13.19;100.00
22605;BME280;11469;49.024;8.246;2022-09-12T00:21:55;100494.16;;;13.16;100.00
22605;BME280;11469;49.024;8.246;2022-09-12T00:24:21;100495.94;;;13.05;100.00
22605;BME280;11469;49.024;8.246;2022-09-12T00:26:46;100486.63;;;13.01;100.00
22605;BME280;11469;49.024;8.246;2022-09-12T00:29:20;100480.19;;;13.01;100.00
22605;BME280;11469;49.024;8.246;2022-09-12T00:31:46;100486.19;;;12.99;100.00
22605;BME280;11469;49.024;8.246;2022-09-12T00:34:12;100480.44;;;12.92;100.00
22605;BME280;11469;49.024;8.246;2022-09-12T00:36:38;100474.38;;;12.90;100.00
22605;BME280;11469;49.024;8.246;2022-09-12T00:39:04;100479.56;;;12.88;100.00
22605;BME280;11469;49.024;8.246;2022-09-12T00:41:36;100475.94;;;12.87;100.00
22605;BME280;11469;49.024;8.246;2022-09-12T00:46:50;100469.94;;;12.89;100.00
22605;BME280;11469;49.024;8.246;2022-09-12T00:51:53;100468.06;;;12.96;100.00
22605;BME280;11469;49.024;8.246;2022-09-12T00:54:25;100473.63;;;12.93;100.00
22605;BME280;11469;49.024;8.246;2022-09-12T00:56:55;100474.44;;;12.93;100.00
22605;BME280;11469;49.024;8.246;2022-09-12T00:59:28;100470.31;;;12.87;100.00
22605;BME280;11469;49.024;8.246;2022-09-12T01:01:56;100470.56;;;12.79;100.00
22605;BME280;11469;49.024;8.246;2022-09-12T01:04:24;100462.09;;;12.75;100.00
22605;BME280;11469;49.024;8.246;2022-09-12T01:06:51;100461.69;;;12.77;100.00
22605;BME280;11469;49.024;8.246;2022-09-12T01:09:21;100468.47;;;12.72;100.00
22605;BME280;11469;49.024;8.246;2022-09-12T01:11:48;100463.06;;;12.63;100.00
22605;BME280;11469;49.024;8.246;2022-09-12T01:14:16;100464.69;;;12.65;100.00
22605;BME280;11469;49.024;8.246;2022-09-12T01:16:42;100469.13;;;12.66;100.00
22605;BME280;11469;49.024;8.246;2022-09-12T01:25:02;100458.44;;;12.52;100.00
22605;BME280;11469;49.024;8.246;2022-09-12T01:36:04;100451.31;;;12.58;100.00
22605;BME280;11469;49.024;8.246;2022-09-12T01:38:52;100454.44;;;12.53;100.00
22605;BME280;11469;49.024;8.246;2022-09-12T01:46:34;100446.47;;;12.36;100.00
22605;BME280;11469;49.024;8.246;2022-09-12T01:49:27;100435.31;;;12.39;100.00
22605;BME280;11469;49.024;8.246;2022-09-12T01:52:07;100446.31;;;12.48;100.00
22605;BME280;11469;49.024;8.246;2022-09-12T01:55:09;100431.75;;;12.42;100.00
22605;BME280;11469;49.024;8.246;2022-09-12T02:00:23;100428.75;;;12.32;100.00
22605;BME280;11469;49.024;8.246;2022-09-12T02:02:56;100429.06;;;12.26;100.00
22605;BME280;11469;49.024;8.246;2022-09-12T02:05:33;100431.31;;;12.17;100.00
22605;BME280;11469;49.024;8.246;2022-09-12T02:10:58;100431.16;;;12.10;100.00
22605;BME280;11469;49.024;8.246;2022-09-12T02:13:37;100422.66;;;12.07;100.00
22605;BME280;11469;49.024;8.246;2022-09-12T02:16:25;100423.47;;;12.07;100.00
22605;BME280;11469;49.024;8.246;2022-09-12T02:18:56;100423.09;;;12.09;100.00
22605;BME280;11469;49.024;8.246;2022-09-12T02:21:25;100423.91;;;12.09;100.00
22605;BME280;11469;49.024;8.246;2022-09-12T02:23:56;100421.03;;;12.06;100.00
22605;BME280;11469;49.024;8.246;2022-09-12T02:26:28;100427.03;;;12.04;100.00
22605;BME280;11469;49.024;8.246;2022-09-12T02:28:55;100425.47;;;12.07;100.00
22605;BME280;11469;49.024;8.246;2022-09-12T02:34:35;100421.63;;;11.95;100.00
22605;BME280;11469;49.024;8.246;2022-09-12T02:39:44;100422.88;;;11.98;100.00
22605;BME280;11469;49.024;8.246;2022-09-12T02:42:10;100418.09;;;11.99;100.00
22605;BME280;11469;49.024;8.246;2022-09-12T02:44:36;100417.34;;;12.02;100.00
22605;BME280;11469;49.024;8.246;2022-09-12T02:47:16;100424.59;;;12.03;100.00
22605;BME280;11469;49.024;8.246;2022-09-12T02:49:43;100413.19;;;11.95;100.00
22605;BME280;11469;49.024;8.246;2022-09-12T02:52:08;100413.13;;;11.92;100.00
22605;BME280;11469;49.024;8.246;2022-09-12T02:54:34;100412.03;;;11.96;100.00
22605;BME280;11469;49.024;8.246;2022-09-12T02:57:02;100418.16;;;12.02;100.00
22605;BME280;11469;49.024;8.246;2022-09-12T02:59:27;100412.38;;;11.95;100.00
22605;BME280;11469;49.024;8.246;2022-09-12T03:08:04;100405.00;;;11.87;100.00
22605;BME280;11469;49.024;8.246;2022-09-12T03:18:45;100408.31;;;11.92;100.00
22605;BME280;11469;49.024;8.246;2022-09-12T03:21:58;100408.69;;;11.91;100.00
22605;BME280;11469;49.024;8.246;2022-09-12T03:24:24;100417.13;;;11.91;100.00
22605;BME280;11469;49.024;8.246;2022-09-12T03:29:21;100412.31;;;11.91;100.00
22605;BME280;11469;49.024;8.246;2022-09-12T03:31:54;100412.31;;;11.91;100.00
22605;BME280;11469;49.024;8.246;2022-09-12T03:34:21;100415.50;;;11.90;100.00
22605;BME280;11469;49.024;8.246;2022-09-12T03:36:47;100415.41;;;11.86;100.00
22605;BME280;11469;49.024;8.246;2022-09-12T03:39:13;100421.13;;;11.90;100.00
22605;BME280;11469;49.024;8.246;2022-09-12T03:41:39;100418.75;;;11.92;100.00
22605;BME280;11469;49.024;8.246;2022-09-12T03:44:05;100416.75;;;11.92;100.00
22605;BME280;11469;49.024;8.246;2022-09-12T03:46:30;100411.88;;;11.89;100.00
22605;BME280;11469;49.024;8.246;2022-09-12T03:48:56;100407.06;;;11.90;100.00
22605;BME280;11469;49.024;8.246;2022-09-12T03:51:21;100412.47;;;11.99;100.00
22605;BME280;11469;49.024;8.246;2022-09-12T03:53:47;100415.50;;;11.90;100.00
22605;BME280;11469;49.024;8.246;2022-09-12T03:56:13;100414.69;;;11.89;100.00
22605;BME280;11469;49.024;8.246;2022-09-12T03:58:39;100401.81;;;11.88;100.00
22605;BME280;11469;49.024;8.246;2022-09-12T04:01:09;100409.88;;;11.90;100.00
22605;BME280;11469;49.024;8.246;2022-09-12T04:03:40;100410.16;;;11.85;100.00
22605;BME280;11469;49.024;8.246;2022-09-12T04:06:08;100411.31;;;11.80;100.00
22605;BME280;11469;49.024;8.246;2022-09-12T04:08:34;100413.56;;;11.75;100.00
22605;BME280;11469;49.024;8.246;2022-09-12T04:11:09;100407.97;;;11.75;100.00
22605;BME280;11469;49.024;8.246;2022-09-12T04:13:35;100404.34;;;11.74;100.00
22605;BME280;11469;49.024;8.246;2022-09-12T04:16:02;100403.88;;;11.72;100.00
22605;BME280;11469;49.024;8.246;2022-09-12T04:18:28;100408.69;;;11.72;100.00
22605;BME280;11469;49.024;8.246;2022-09-12T04:20:54;100400.19;;;11.68;100.00
22605;BME280;11469;49.024;8.246;2022-09-12T04:23:19;100404.63;;;11.69;100.00
22605;BME280;11469;49.024;8.246;2022-09-12T04:25:53;100409.44;;;11.69;100.00
22605;BME280;11469;49.024;8.246;2022-09-12T04:28:19;100403.38;;;11.67;100.00
22605;BME280;11469;49.024;8.246;2022-09-12T04:30:44;100398.94;;;11.66;100.00
22605;BME280;11469;49.024;8.246;2022-09-12T04:33:09;100393.31;;;11.66;100.00
22605;BME280;11469;49.024;8.246;2022-09-12T04:35:35;100395.03;;;11.70;100.00
22605;BME280;11469;49.024;8.246;2022-09-12T04:38:00;100395.75;;;11.67;100.00
22605;BME280;11469;49.024;8.246;2022-09-12T04:40:28;100398.50;;;11.63;100.00
22605;BME280;11469;49.024;8.246;2022-09-12T04:42:53;100392.06;;;11.63;100.00
22605;BME280;11469;49.024;8.246;2022-09-12T04:45:20;100396.25;;;11.53;100.00
22605;BME280;11469;49.024;8.246;2022-09-12T04:47:46;100400.34;;;11.56;100.00
22605;BME280;11469;49.024;8.246;2022-09-12T04:50:11;100399.81;;;11.50;100.00
22605;BME280;11469;49.024;8.246;2022-09-12T04:52:36;100398.78;;;11.58;100.00
22605;BME280;11469;49.024;8.246;2022-09-12T04:55:02;100404.75;;;11.57;100.00
22605;BME280;11469;49.024;8.246;2022-09-12T04:57:27;100397.06;;;11.54;100.00
22605;BME280;11469;49.024;8.246;2022-09-12T04:59:53;100398.25;;;11.53;100.00
22605;BME280;11469;49.024;8.246;2022-09-12T05:02:18;100405.41;;;11.50;100.00
22605;BME280;11469;49.024;8.246;2022-09-12T05:04:43;100398.63;;;11.51;100.00
22605;BME280;11469;49.024;8.246;2022-09-12T05:07:11;100405.06;;;11.52;100.00
22605;BME280;11469;49.024;8.246;2022-09-12T05:09:36;100406.75;;;11.56;100.00
22605;BME280;11469;49.024;8.246;2022-09-12T05:12:02;100413.09;;;11.53;100.00
22605;BME280;11469;49.024;8.246;2022-09-12T05:14:27;100407.94;;;11.55;100.00
22605;BME280;11469;49.024;8.246;2022-09-12T05:16:53;100416.88;;;11.61;100.00
22605;BME280;11469;49.024;8.246;2022-09-12T05:19:20;100412.97;;;11.66;100.00
22605;BME280;11469;49.024;8.246;2022-09-12T05:21:45;100416.22;;;11.68;100.00
22605;BME280;11469;49.024;8.246;2022-09-12T05:24:11;100409.06;;;11.70;100.00
22605;BME280;11469;49.024;8.246;2022-09-12T05:26:36;100405.81;;;11.68;100.00
22605;BME280;11469;49.024;8.246;2022-09-12T05:29:03;100407.44;;;11.69;100.00
22605;BME280;11469;49.024;8.246;2022-09-12T05:31:28;100406.25;;;11.70;100.00
22605;BME280;11469;49.024;8.246;2022-09-12T05:33:54;100406.44;;;11.77;100.00
22605;BME280;11469;49.024;8.246;2022-09-12T05:36:28;100409.28;;;12.00;100.00
22605;BME280;11469;49.024;8.246;2022-09-12T05:38:54;100406.75;;;12.14;100.00
22605;BME280;11469;49.024;8.246;2022-09-12T05:41:25;100406.25;;;12.09;100.00
22605;BME280;11469;49.024;8.246;2022-09-12T05:43:52;100410.88;;;12.20;100.00
22605;BME280;11469;49.024;8.246;2022-09-12T05:46:20;100408.47;;;12.19;100.00
22605;BME280;11469;49.024;8.246;2022-09-12T05:48:46;100409.03;;;12.28;100.00
22605;BME280;11469;49.024;8.246;2022-09-12T05:51:18;100410.44;;;12.18;100.00
22605;BME280;11469;49.024;8.246;2022-09-12T05:53:50;100415.19;;;12.14;100.00
22605;BME280;11469;49.024;8.246;2022-09-12T05:56:19;100418.06;;;12.18;100.00
22605;BME280;11469;49.024;8.246;2022-09-12T05:58:46;100416.06;;;12.18;100.00
22605;BME280;11469;49.024;8.246;2022-09-12T06:01:14;100422.56;;;12.22;100.00
22605;BME280;11469;49.024;8.246;2022-09-12T06:03:49;100433.91;;;12.29;100.00
22605;BME280;11469;49.024;8.246;2022-09-12T06:06:17;100424.38;;;12.34;100.00
22605;BME280;11469;49.024;8.246;2022-09-12T06:08:45;100424.56;;;12.45;100.00
22605;BME280;11469;49.024;8.246;2022-09-12T06:11:13;100434.59;;;12.65;100.00
22605;BME280;11469;49.024;8.246;2022-09-12T06:13:40;100429.22;;;13.06;100.00
22605;BME280;11469;49.024;8.246;2022-09-12T06:16:11;100428.75;;;13.53;100.00
22605;BME280;11469;49.024;8.246;2022-09-12T06:18:37;100423.56;;;13.88;100.00
22605;BME280;11469;49.024;8.246;2022-09-12T06:21:04;100423.94;;;14.20;100.00
22605;BME280;11469;49.024;8.246;2022-09-12T06:23:30;100426.81;;;14.61;100.00
22605;BME280;11469;49.024;8.246;2022-09-12T06:25:56;100423.75;;;14.80;97.94
22605;BME280;11469;49.024;8.246;2022-09-12T06:28:22;100420.19;;;14.87;100.00
22605;BME280;11469;49.024;8.246;2022-09-12T06:30:47;100423.97;;;15.05;98.91
22605;BME280;11469;49.024;8.246;2022-09-12T06:33:13;100426.06;;;15.19;95.67
22605;BME280;11469;49.024;8.246;2022-09-12T06:35:39;100424.81;;;15.13;96.48
22605;BME280;11469;49.024;8.246;2022-09-12T06:38:05;100415.47;;;15.02;96.52
22605;BME280;11469;49.024;8.246;2022-09-12T06:40:31;100420.31;;;15.01;96.86
22605;BME280;11469;49.024;8.246;2022-09-12T06:42:56;100420.13;;;14.80;98.67
22605;BME280;11469;49.024;8.246;2022-09-12T06:45:22;100422.25;;;14.93;99.55
22605;BME280;11469;49.024;8.246;2022-09-12T06:47:47;100423.06;;;14.94;98.32
22605;BME280;11469;49.024;8.246;2022-09-12T06:50:13;100429.00;;;14.82;98.74
22605;BME280;11469;49.024;8.246;2022-09-12T06:52:38;100427.75;;;14.79;99.57
22605;BME280;11469;49.024;8.246;2022-09-12T06:55:04;100428.16;;;14.78;99.23
22605;BME280;11469;49.024;8.246;2022-09-12T06:57:30;100437.13;;;14.90;99.71
22605;BME280;11469;49.024;8.246;2022-09-12T06:59:57;100438.00;;;14.98;98.85
22605;BME280;11469;49.024;8.246;2022-09-12T07:02:23;100436.41;;;15.01;99.07
22605;BME280;11469;49.024;8.246;2022-09-12T07:04:50;100438.88;;;15.06;98.89
22605;BME280;11469;49.024;8.246;2022-09-12T07:07:16;100437.31;;;15.12;99.00
22605;BME280;11469;49.024;8.246;2022-09-12T07:09:41;100439.34;;;15.18;99.40
22605;BME280;11469;49.024;8.246;2022-09-12T07:12:07;100430.53;;;15.23;97.80
22605;BME280;11469;49.024;8.246;2022-09-12T07:14:32;100438.59;;;15.25;97.82
22605;BME280;11469;49.024;8.246;2022-09-12T07:16:58;100424.94;;;15.31;98.31
22605;BME280;11469;49.024;8.246;2022-09-12T07:19:23;100432.63;;;15.34;98.29
22605;BME280;11469;49.024;8.246;2022-09-12T07:21:49;100429.78;;;15.30;97.71
22605;BME280;11469;49.024;8.246;2022-09-12T07:24:14;100428.59;;;15.35;98.59
22605;BME280;11469;49.024;8.246;2022-09-12T07:26:40;100420.53;;;15.37;98.59
22605;BME280;11469;49.024;8.246;2022-09-12T07:29:06;100420.19;;;15.45;98.57
22605;BME280;11469;49.024;8.246;2022-09-12T07:31:34;100422.59;;;15.43;97.86
22605;BME280;11469;49.024;8.246;2022-09-12T07:34:04;100425.00;;;15.41;97.91
22605;BME280;11469;49.024;8.246;2022-09-12T07:36:30;100423.44;;;15.47;97.83
22605;BME280;11469;49.024;8.246;2022-09-12T07:38:56;100427.50;;;15.53;98.03
22605;BME280;11469;49.024;8.246;2022-09-12T07:41:27;100422.72;;;15.65;97.59
22605;BME280;11469;49.024;8.246;2022-09-12T07:43:55;100424.75;;;15.68;96.50
22605;BME280;11469;49.024;8.246;2022-09-12T07:46:21;100434.91;;;15.79;95.28
22605;BME280;11469;49.024;8.246;2022-09-12T07:48:54;100434.94;;;15.83;95.72
22605;BME280;11469;49.024;8.246;2022-09-12T07:51:20;100430.91;;;15.87;93.69
22605;BME280;11469;49.024;8.246;2022-09-12T07:53:46;100428.53;;;15.93;93.69
22605;BME280;11469;49.024;8.246;2022-09-12T07:56:14;100423.72;;;16.01;93.00
22605;BME280;11469;49.024;8.246;2022-09-12T07:58:41;100422.53;;;16.12;94.54
22605;BME280;11469;49.024;8.246;2022-09-12T08:01:10;100428.19;;;16.19;92.31
22605;BME280;11469;49.024;8.246;2022-09-12T08:03:38;100421.38;;;16.35;91.70
22605;BME280;11469;49.024;8.246;2022-09-12T08:06:07;100427.09;;;16.52;91.79
22605;BME280;11469;49.024;8.246;2022-09-12T08:08:33;100419.84;;;16.69;91.73
22605;BME280;11469;49.024;8.246;2022-09-12T08:11:00;100424.69;;;17.08;89.84
22605;BME280;11469;49.024;8.246;2022-09-12T08:13:28;100430.34;;;17.08;86.87
22605;BME280;11469;49.024;8.246;2022-09-12T08:16:06;100425.94;;;16.92;85.46
22605;BME280;11469;49.024;8.246;2022-09-12T08:18:33;100429.94;;;17.02;86.03
22605;BME280;11469;49.024;8.246;2022-09-12T08:21:05;100427.94;;;16.99;87.53
22605;BME280;11469;49.024;8.246;2022-09-12T08:23:32;100427.91;;;17.06;88.00
22605;BME280;11469;49.024;8.246;2022-09-12T08:25:59;100429.53;;;17.21;87.67
22605;BME280;11469;49.024;8.246;2022-09-12T08:28:26;100435.19;;;17.32;86.41
22605;BME280;11469;49.024;8.246;2022-09-12T08:30:53;100427.50;;;17.43;85.82
22605;BME280;11469;49.024;8.246;2022-09-12T08:33:19;100432.72;;;17.52;86.72
22605;BME280;11469;49.024;8.246;2022-09-12T08:35:46;100422.56;;;17.62;86.14
22605;BME280;11469;49.024;8.246;2022-09-12T08:38:11;100421.75;;;17.65;85.42
22605;BME280;11469;49.024;8.246;2022-09-12T08:40:56;100429.88;;;17.70;85.41
22605;BME280;11469;49.024;8.246;2022-09-12T08:46:31;100420.50;;;17.90;83.95
22605;BME280;11469;49.024;8.246;2022-09-12T08:49:00;100424.44;;;18.07;83.22
22605;BME280;11469;49.024;8.246;2022-09-12T08:51:30;100419.59;;;18.01;82.27
22605;BME280;11469;49.024;8.246;2022-09-12T08:53:57;100416.31;;;18.13;81.68
22605;BME280;11469;49.024;8.246;2022-09-12T08:56:27;100424.44;;;18.07;80.79
22605;BME280;11469;49.024;8.246;2022-09-12T08:58:53;100424.00;;;18.12;81.55
22605;BME280;11469;49.024;8.246;2022-09-12T09:01:39;100420.31;;;18.22;81.96
22605;BME280;11469;49.024;8.246;2022-09-12T09:04:19;100429.13;;;18.42;81.05
22605;BME280;11469;49.024;8.246;2022-09-12T09:07:06;100418.09;;;18.55;80.47
22605;BME280;11469;49.024;8.246;2022-09-12T09:13:08;100419.84;;;18.94;80.33
22605;BME280;11469;49.024;8.246;2022-09-12T09:18:51;100421.44;;;18.98;76.69
22605;BME280;11469;49.024;8.246;2022-09-12T09:21:33;100420.41;;;18.78;77.56
22605;BME280;11469;49.024;8.246;2022-09-12T09:24:04;100414.56;;;18.96;77.74
22605;BME280;11469;49.024;8.246;2022-09-12T09:29:09;100408.28;;;19.18;77.02
22605;BME280;11469;49.024;8.246;2022-09-12T09:31:38;100406.56;;;19.28;76.94
22605;BME280;11469;49.024;8.246;2022-09-12T09:34:18;100409.16;;;19.49;77.42
22605;BME280;11469;49.024;8.246;2022-09-12T09:36:49;100419.72;;;19.49;75.09
22605;BME280;11469;49.024;8.246;2022-09-12T09:39:19;100416.38;;;19.61;73.92
22605;BME280;11469;49.024;8.246;2022-09-12T09:42:08;100415.06;;;19.69;72.68
22605;BME280;11469;49.024;8.246;2022-09-12T09:44:35;100420.34;;;19.71;72.21
22605;BME280;11469;49.024;8.246;2022-09-12T09:47:01;100427.50;;;19.82;72.43
22605;BME280;11469;49.024;8.246;2022-09-12T09:49:30;100416.78;;;19.94;73.56
22605;BME280;11469;49.024;8.246;2022-09-12T09:51:57;100414.16;;;20.10;72.41
22605;BME280;11469;49.024;8.246;2022-09-12T09:54:27;100408.94;;;20.05;71.06
22605;BME280;11469;49.024;8.246;2022-09-12T09:56:54;100411.75;;;20.08;71.57
22605;BME280;11469;49.024;8.246;2022-09-12T09:59:31;100402.59;;;20.24;71.43
22605;BME280;11469;49.024;8.246;2022-09-12T10:04:40;100402.59;;;20.24;70.73
22605;BME280;11469;49.024;8.246;2022-09-12T10:07:18;100393.00;;;20.41;71.44
22605;BME280;11469;49.024;8.246;2022-09-12T10:12:28;100394.25;;;20.67;69.30
22605;BME280;11469;49.024;8.246;2022-09-12T10:15:02;100395.31;;;20.77;69.43
22605;BME280;11469;49.024;8.246;2022-09-12T10:17:40;100394.56;;;20.96;68.16
22605;BME280;11469;49.024;8.246;2022-09-12T10:20:43;100383.72;;;20.87;66.54
22605;BME280;11469;49.024;8.246;2022-09-12T10:25:47;100381.06;;;21.00;66.20
22605;BME280;11469;49.024;8.246;2022-09-12T10:28:31;100383.16;;;21.19;65.13
22605;BME280;11469;49.024;8.246;2022-09-12T10:30:58;100376.53;;;21.03;65.79
22605;BME280;11469;49.024;8.246;2022-09-12T10:33:27;100366.88;;;21.20;65.47
22605;BME280;11469;49.024;8.246;2022-09-12T10:35:54;100374.94;;;21.02;64.63
22605;BME280;11469;49.024;8.246;2022-09-12T10:38:21;100371.78;;;21.19;65.42
22605;BME280;11469;49.024;8.246;2022-09-12T10:40:57;100359.38;;;21.30;64.91
22605;BME280;11469;49.024;8.246;2022-09-12T10:43:35;100366.59;;;21.58;64.02
22605;BME280;11469;49.024;8.246;2022-09-12T10:48:40;100354.22;;;21.64;62.28
22605;BME280;11469;49.024;8.246;2022-09-12T10:51:14;100349.78;;;21.63;60.84
22605;BME280;11469;49.024;8.246;2022-09-12T10:54:10;100345.72;;;21.80;61.82
22605;BME280;11469;49.024;8.246;2022-09-12T11:05:06;100342.75;;;21.68;60.54
22605;BME280;11469;49.024;8.246;2022-09-12T11:07:45;100335.31;;;21.90;59.90
22605;BME280;11469;49.024;8.246;2022-09-12T11:12:56;100332.19;;;22.04;59.69
22605;BME280;11469;49.024;8.246;2022-09-12T11:17:59;100323.69;;;22.21;58.88
22605;BME280;11469;49.024;8.246;2022-09-12T11:20:32;100323.69;;;22.21;59.12
22605;BME280;11469;49.024;8.246;2022-09-12T11:26:06;100326.34;;;22.28;57.64
22605;BME280;11469;49.024;8.246;2022-09-12T11:28:46;100330.09;;;22.41;57.04
22605;BME280;11469;49.024;8.246;2022-09-12T11:31:45;100321.91;;;22.43;57.15
22605;BME280;11469;49.024;8.246;2022-09-12T11:40:16;100293.78;;;22.74;56.14
22605;BME280;11469;49.024;8.246;2022-09-12T11:42:45;100300.81;;;22.69;55.19
22605;BME280;11469;49.024;8.246;2022-09-12T11:45:22;100295.31;;;22.78;54.53
22605;BME280;11469;49.024;8.246;2022-09-12T11:47:53;100294.84;;;22.96;53.25
22605;BME280;11469;49.024;8.246;2022-09-12T11:50:25;100295.50;;;23.16;51.91
22605;BME280;11469;49.024;8.246;2022-09-12T11:52:54;100292.75;;;23.42;50.94
22605;BME280;11469;49.024;8.246;2022-09-12T11:55:26;100289.75;;;23.33;51.04
22605;BME280;11469;49.024;8.246;2022-09-12T11:57:57;100277.16;;;23.30;51.49
22605;BME280;11469;49.024;8.246;2022-09-12T12:00:33;100273.66;;;23.39;51.42
22605;BME280;11469;49.024;8.246;2022-09-12T12:03:08;100268.13;;;23.32;51.02
22605;BME280;11469;49.024;8.246;2022-09-12T12:05:54;100269.03;;;23.29;51.54
22605;BME280;11469;49.024;8.246;2022-09-12T12:08:23;100275.28;;;23.53;52.67
22605;BME280;11469;49.024;8.246;2022-09-12T12:10:53;100263.44;;;23.67;51.55
22605;BME280;11469;49.024;8.246;2022-09-12T12:13:33;100260.66;;;23.50;50.94
22605;BME280;11469;49.024;8.246;2022-09-12T12:16:25;100259.78;;;23.54;49.41
22605;BME280;11469;49.024;8.246;2022-09-12T12:18:59;100262.97;;;23.56;49.67
22605;BME280;11469;49.024;8.246;2022-09-12T12:27:01;100255.91;;;23.86;50.50
22605;BME280;11469;49.024;8.246;2022-09-12T12:44:55;100233.25;;;24.29;48.92
22605;BME280;11469;49.024;8.246;2022-09-12T12:47:22;100239.91;;;24.39;47.30
22605;BME280;11469;49.024;8.246;2022-09-12T12:49:58;100235.06;;;24.48;47.45
22605;BME280;11469;49.024;8.246;2022-09-12T12:52:24;100233.06;;;24.58;46.57
22605;BME280;11469;49.024;8.246;2022-09-12T12:54:56;100230.47;;;24.51;46.31
22605;BME280;11469;49.024;8.246;2022-09-12T12:59:54;100227.75;;;24.47;46.44
22605;BME280;11469;49.024;8.246;2022-09-12T13:02:28;100218.75;;;24.58;46.57
22605;BME280;11469;49.024;8.246;2022-09-12T13:04:57;100226.34;;;24.52;47.07
22605;BME280;11469;49.024;8.246;2022-09-12T13:07:33;100222.06;;;24.69;46.56
22605;BME280;11469;49.024;8.246;2022-09-12T13:10:01;100216.53;;;24.75;45.94
22605;BME280;11469;49.024;8.246;2022-09-12T13:12:37;100205.53;;;24.73;45.89
22605;BME280;11469;49.024;8.246;2022-09-12T13:18:40;100207.91;;;24.88;45.29
22605;BME280;11469;49.024;8.246;2022-09-12T13:23:34;100196.31;;;24.57;45.76
22605;BME280;11469;49.024;8.246;2022-09-12T13:26:00;100182.31;;;24.59;46.43
22605;BME280;11469;49.024;8.246;2022-09-12T13:28:27;100187.34;;;24.67;47.37
22605;BME280;11469;49.024;8.246;2022-09-12T13:39:55;100164.22;;;24.84;46.81
22605;BME280;11469;49.024;8.246;2022-09-12T13:42:39;100170.03;;;24.93;46.41
22605;BME280;11469;49.024;8.246;2022-09-12T13:45:23;100166.00;;;25.03;46.11
22605;BME280;11469;49.024;8.246;2022-09-12T13:47:56;100169.53;;;25.07;45.97
22605;BME280;11469;49.024;8.246;2022-09-12T13:50:26;100161.78;;;25.38;44.69
22605;BME280;11469;49.024;8.246;2022-09-12T13:52:58;100166.56;;;25.41;44.38
22605;BME280;11469;49.024;8.246;2022-09-12T13:55:30;100165.63;;;25.44;44.99
22605;BME280;11469;49.024;8.246;2022-09-12T13:58:04;100148.91;;;25.52;43.48
22605;BME280;11469;49.024;8.246;2022-09-12T14:00:31;100151.97;;;25.58;44.35
22605;BME280;11469;49.024;8.246;2022-09-12T14:03:00;100147.00;;;25.49;42.85
22605;BME280;11469;49.024;8.246;2022-09-12T14:05:52;100147.28;;;25.42;43.13
22605;BME280;11469;49.024;8.246;2022-09-12T14:08:19;100152.44;;;25.56;42.81
22605;BME280;11469;49.024;8.246;2022-09-12T14:10:47;100149.75;;;25.62;42.79
22605;BME280;11469;49.024;8.246;2022-09-12T14:13:19;100142.63;;;25.66;43.04
22605;BME280;11469;49.024;8.246;2022-09-12T14:15:47;100136.91;;;25.66;43.33
22605;BME280;11469;49.024;8.246;2022-09-12T14:18:28;100139.84;;;25.54;42.16
22605;BME280;11469;49.024;8.246;2022-09-12T14:20:56;100137.13;;;25.50;41.99
22605;BME280;11469;49.024;8.246;2022-09-12T14:23:30;100136.34;;;25.50;42.42
22605;BME280;11469;49.024;8.246;2022-09-12T14:26:01;100129.47;;;25.47;42.73
22605;BME280;11469;49.024;8.246;2022-09-12T14:28:28;100118.47;;;25.55;43.92
22605;BME280;11469;49.024;8.246;2022-09-12T14:33:53;100123.56;;;25.82;43.87
22605;BME280;11469;49.024;8.246;2022-09-12T14:38:49;100126.97;;;25.98;43.33
22605;BME280;11469;49.024;8.246;2022-09-12T14:41:42;100122.31;;;25.52;43.67
22605;BME280;11469;49.024;8.246;2022-09-12T14:44:23;100117.78;;;25.72;43.70
22605;BME280;11469;49.024;8.246;2022-09-12T14:46:50;100111.91;;;25.76;43.81
22605;BME280;11469;49.024;8.246;2022-09-12T14:49:24;100113.03;;;25.78;43.07
22605;BME280;11469;49.024;8.246;2022-09-12T14:51:56;100110.22;;;25.97;43.77
22605;BME280;11469;49.024;8.246;2022-09-12T14:56:57;100106.69;;;25.84;42.81
22605;BME280;11469;49.024;8.246;2022-09-12T14:59:36;100093.16;;;25.93;42.21
22605;BME280;11469;49.024;8.246;2022-09-12T15:04:48;100087.13;;;26.19;42.20
22605;BME280;11469;49.024;8.246;2022-09-12T15:07:31;100088.59;;;26.32;41.95
22605;BME280;11469;49.024;8.246;2022-09-12T15:09:59;100081.88;;;26.26;42.00
22605;BME280;11469;49.024;8.246;2022-09-12T15:12:24;100079.47;;;26.25;41.66
22605;BME280;11469;49.024;8.246;2022-09-12T15:14:50;100087.34;;;26.33;42.14
22605;BME280;11469;49.024;8.246;2022-09-12T15:17:15;100085.06;;;26.19;42.40
22605;BME280;11469;49.024;8.246;2022-09-12T15:19:41;100080.94;;;26.38;41.93
22605;BME280;11469;49.024;8.246;2022-09-12T15:22:10;100073.25;;;26.26;41.78
22605;BME280;11469;49.024;8.246;2022-09-12T15:24:36;100074.38;;;26.29;42.08
22605;BME280;11469;49.024;8.246;2022-09-12T15:27:12;100072.00;;;26.36;41.92